sensor_id;sensor_type;location;lat;lon;timestamp;P1;durP1;ratioP1;P2;durP2;ratioP2
28188;SDS011;15471;51.166;4.470;2023-02-15T00:01:54;0.20;;;0.20;;
28188;SDS011;15471;51.166;4.470;2023-02-15T00:04:22;0.20;;;0.20;;
28188;SDS011;15471;51.166;4.470;2023-02-15T00:06:49;0.20;;;0.20;;
28188;SDS011;15471;51.166;4.470;2023-02-15T00:09:15;0.20;;;0.20;;
28188;SDS011;15471;51.166;4.470;2023-02-15T00:11:41;0.20;;;0.20;;
28188;SDS011;15471;51.166;4.470;2023-02-15T00:16:39;0.20;;;0.20;;
28188;SDS011;15471;51.166;4.470;2023-02-15T00:19:09;0.30;;;0.30;;
28188;SDS011;15471;51.166;4.470;2023-02-15T00:21:36;0.20;;;0.20;;
28188;SDS011;15471;51.166;4.470;2023-02-15T00:24:04;0.20;;;0.20;;
28188;SDS011;15471;51.166;4.470;2023-02-15T00:26:31;0.30;;;0.30;;
28188;SDS011;15471;51.166;4.470;2023-02-15T00:28:58;0.20;;;0.20;;
28188;SDS011;15471;51.166;4.470;2023-02-15T00:31:26;0.20;;;0.20;;
28188;SDS011;15471;51.166;4.470;2023-02-15T00:33:54;0.20;;;0.20;;
28188;SDS011;15471;51.166;4.470;2023-02-15T00:36:20;0.20;;;0.20;;
28188;SDS011;15471;51.166;4.470;2023-02-15T00:38:47;0.20;;;0.20;;
28188;SDS011;15471;51.166;4.470;2023-02-15T00:41:13;0.20;;;0.20;;
28188;SDS011;15471;51.166;4.470;2023-02-15T00:43:39;0.20;;;0.20;;
28188;SDS011;15471;51.166;4.470;2023-02-15T00:46:06;0.30;;;0.30;;
28188;SDS011;15471;51.166;4.470;2023-02-15T00:48:32;0.30;;;0.30;;
28188;SDS011;15471;51.166;4.470;2023-02-15T00:50:58;0.20;;;0.20;;
28188;SDS011;15471;51.166;4.470;2023-02-15T00:53:26;0.20;;;0.20;;
28188;SDS011;15471;51.166;4.470;2023-02-15T00:55:53;0.20;;;0.20;;
28188;SDS011;15471;51.166;4.470;2023-02-15T00:58:19;0.30;;;0.30;;
28188;SDS011;15471;51.166;4.470;2023-02-15T01:00:45;0.20;;;0.20;;
28188;SDS011;15471;51.166;4.470;2023-02-15T01:03:12;0.30;;;0.30;;
28188;SDS011;15471;51.166;4.470;2023-02-15T01:05:41;0.20;;;0.20;;
28188;SDS011;15471;51.166;4.470;2023-02-15T01:08:07;0.30;;;0.30;;
28188;SDS011;15471;51.166;4.470;2023-02-15T01:10:33;0.30;;;0.30;;
28188;SDS011;15471;51.166;4.470;2023-02-15T01:13:00;0.22;;;0.22;;
28188;SDS011;15471;51.166;4.470;2023-02-15T01:15:26;0.20;;;0.20;;
28188;SDS011;15471;51.166;4.470;2023-02-15T01:17:52;0.20;;;0.20;;
28188;SDS011;15471;51.166;4.470;2023-02-15T01:20:20;0.30;;;0.30;;
28188;SDS011;15471;51.166;4.470;2023-02-15T01:22:50;0.20;;;0.20;;
28188;SDS011;15471;51.166;4.470;2023-02-15T01:25:17;0.20;;;0.20;;
28188;SDS011;15471;51.166;4.470;2023-02-15T01:27:43;0.30;;;0.30;;
28188;SDS011;15471;51.166;4.470;2023-02-15T01:30:11;0.25;;;0.25;;
28188;SDS011;15471;51.166;4.470;2023-02-15T01:32:38;0.30;;;0.30;;
28188;SDS011;15471;51.166;4.470;2023-02-15T01:35:06;0.20;;;0.20;;
28188;SDS011;15471;51.166;4.470;2023-02-15T01:37:33;0.30;;;0.30;;
28188;SDS011;15471;51.166;4.470;2023-02-15T01:40:00;0.30;;;0.30;;
28188;SDS011;15471;51.166;4.470;2023-02-15T01:42:27;0.30;;;0.30;;
28188;SDS011;15471;51.166;4.470;2023-02-15T01:44:55;0.30;;;0.30;;
28188;SDS011;15471;51.166;4.470;2023-02-15T01:50:15;0.30;;;0.30;;
28188;SDS011;15471;51.166;4.470;2023-02-15T01:53:01;0.28;;;0.28;;
28188;SDS011;15471;51.166;4.470;2023-02-15T01:55:39;0.30;;;0.30;;
28188;SDS011;15471;51.166;4.470;2023-02-15T02:00:36;0.30;;;0.30;;
28188;SDS011;15471;51.166;4.470;2023-02-15T02:03:02;0.20;;;0.20;;
28188;SDS011;15471;51.166;4.470;2023-02-15T02:05:29;0.25;;;0.25;;
28188;SDS011;15471;51.166;4.470;2023-02-15T02:07:56;0.30;;;0.30;;
28188;SDS011;15471;51.166;4.470;2023-02-15T02:10:24;0.20;;;0.20;;
28188;SDS011;15471;51.166;4.470;2023-02-15T02:12:54;0.30;;;0.30;;
28188;SDS011;15471;51.166;4.470;2023-02-15T02:35:01;0.30;;;0.30;;
28188;SDS011;15471;51.166;4.470;2023-02-15T02:42:44;0.30;;;0.30;;
28188;SDS011;15471;51.166;4.470;2023-02-15T02:45:23;0.30;;;0.30;;
28188;SDS011;15471;51.166;4.470;2023-02-15T02:47:59;0.30;;;0.30;;
28188;SDS011;15471;51.166;4.470;2023-02-15T02:50:30;0.30;;;0.30;;
28188;SDS011;15471;51.166;4.470;2023-02-15T02:52:57;0.30;;;0.30;;
28188;SDS011;15471;51.166;4.470;2023-02-15T02:58:10;0.30;;;0.30;;
28188;SDS011;15471;51.166;4.470;2023-02-15T03:01:24;0.30;;;0.30;;
28188;SDS011;15471;51.166;4.470;2023-02-15T03:06:50;0.30;;;0.30;;
28188;SDS011;15471;51.166;4.470;2023-02-15T03:09:54;0.30;;;0.30;;
28188;SDS011;15471;51.166;4.470;2023-02-15T03:12:19;0.30;;;0.30;;
28188;SDS011;15471;51.166;4.470;2023-02-15T03:14:55;0.30;;;0.30;;
28188;SDS011;15471;51.166;4.470;2023-02-15T03:17:36;0.30;;;0.30;;
28188;SDS011;15471;51.166;4.470;2023-02-15T03:20:24;0.30;;;0.30;;
28188;SDS011;15471;51.166;4.470;2023-02-15T03:23:00;0.20;;;0.20;;
28188;SDS011;15471;51.166;4.470;2023-02-15T03:28:01;0.30;;;0.30;;
28188;SDS011;15471;51.166;4.470;2023-02-15T03:30:33;0.30;;;0.30;;
28188;SDS011;15471;51.166;4.470;2023-02-15T03:33:01;0.30;;;0.30;;
28188;SDS011;15471;51.166;4.470;2023-02-15T03:38:20;0.30;;;0.30;;
28188;SDS011;15471;51.166;4.470;2023-02-15T03:40:50;0.30;;;0.30;;
28188;SDS011;15471;51.166;4.470;2023-02-15T03:46:06;0.30;;;0.30;;
28188;SDS011;15471;51.166;4.470;2023-02-15T03:48:57;0.30;;;0.30;;
28188;SDS011;15471;51.166;4.470;2023-02-15T03:51:31;0.30;;;0.30;;
28188;SDS011;15471;51.166;4.470;2023-02-15T03:54:01;0.30;;;0.30;;
28188;SDS011;15471;51.166;4.470;2023-02-15T03:57:07;0.30;;;0.30;;
28188;SDS011;15471;51.166;4.470;2023-02-15T03:59:57;0.30;;;0.30;;
28188;SDS011;15471;51.166;4.470;2023-02-15T04:05:36;0.30;;;0.30;;
28188;SDS011;15471;51.166;4.470;2023-02-15T04:08:02;0.30;;;0.30;;
28188;SDS011;15471;51.166;4.470;2023-02-15T04:10:28;0.30;;;0.30;;
28188;SDS011;15471;51.166;4.470;2023-02-15T04:13:13;0.30;;;0.30;;
28188;SDS011;15471;51.166;4.470;2023-02-15T04:15:39;0.30;;;0.30;;
28188;SDS011;15471;51.166;4.470;2023-02-15T04:18:23;0.30;;;0.30;;
28188;SDS011;15471;51.166;4.470;2023-02-15T04:21:08;0.30;;;0.30;;
28188;SDS011;15471;51.166;4.470;2023-02-15T04:23:52;0.30;;;0.30;;
28188;SDS011;15471;51.166;4.470;2023-02-15T04:26:37;0.20;;;0.20;;
28188;SDS011;15471;51.166;4.470;2023-02-15T04:29:03;0.28;;;0.28;;
28188;SDS011;15471;51.166;4.470;2023-02-15T04:31:29;0.30;;;0.30;;
28188;SDS011;15471;51.166;4.470;2023-02-15T04:33:54;0.30;;;0.30;;
28188;SDS011;15471;51.166;4.470;2023-02-15T04:36:20;0.30;;;0.30;;
28188;SDS011;15471;51.166;4.470;2023-02-15T04:38:46;0.30;;;0.30;;
28188;SDS011;15471;51.166;4.470;2023-02-15T04:41:12;0.30;;;0.30;;
28188;SDS011;15471;51.166;4.470;2023-02-15T04:43:38;0.30;;;0.30;;
28188;SDS011;15471;51.166;4.470;2023-02-15T04:46:04;0.30;;;0.30;;
28188;SDS011;15471;51.166;4.470;2023-02-15T04:48:30;0.30;;;0.30;;
28188;SDS011;15471;51.166;4.470;2023-02-15T04:50:56;0.30;;;0.30;;
28188;SDS011;15471;51.166;4.470;2023-02-15T04:53:21;0.30;;;0.30;;
28188;SDS011;15471;51.166;4.470;2023-02-15T04:55:47;0.30;;;0.30;;
28188;SDS011;15471;51.166;4.470;2023-02-15T04:58:13;0.30;;;0.30;;
28188;SDS011;15471;51.166;4.470;2023-02-15T05:00:39;0.30;;;0.30;;
28188;SDS011;15471;51.166;4.470;2023-02-15T05:03:05;0.30;;;0.30;;
28188;SDS011;15471;51.166;4.470;2023-02-15T05:05:30;0.30;;;0.30;;
28188;SDS011;15471;51.166;4.470;2023-02-15T05:07:56;0.30;;;0.30;;
28188;SDS011;15471;51.166;4.470;2023-02-15T05:10:22;0.30;;;0.30;;
28188;SDS011;15471;51.166;4.470;2023-02-15T05:12:48;0.30;;;0.30;;
28188;SDS011;15471;51.166;4.470;2023-02-15T05:15:14;0.30;;;0.30;;
28188;SDS011;15471;51.166;4.470;2023-02-15T05:17:40;0.30;;;0.30;;
28188;SDS011;15471;51.166;4.470;2023-02-15T05:20:06;0.30;;;0.30;;
28188;SDS011;15471;51.166;4.470;2023-02-15T05:22:32;0.30;;;0.30;;
28188;SDS011;15471;51.166;4.470;2023-02-15T05:24:58;0.30;;;0.30;;
28188;SDS011;15471;51.166;4.470;2023-02-15T05:27:42;0.30;;;0.30;;
28188;SDS011;15471;51.166;4.470;2023-02-15T05:30:27;0.30;;;0.30;;
28188;SDS011;15471;51.166;4.470;2023-02-15T05:32:52;0.30;;;0.30;;
28188;SDS011;15471;51.166;4.470;2023-02-15T05:35:18;0.30;;;0.30;;
28188;SDS011;15471;51.166;4.470;2023-02-15T05:37:44;0.30;;;0.30;;
28188;SDS011;15471;51.166;4.470;2023-02-15T05:40:10;0.30;;;0.30;;
28188;SDS011;15471;51.166;4.470;2023-02-15T05:42:36;0.30;;;0.30;;
28188;SDS011;15471;51.166;4.470;2023-02-15T05:45:02;0.30;;;0.30;;
28188;SDS011;15471;51.166;4.470;2023-02-15T05:47:29;0.30;;;0.30;;
28188;SDS011;15471;51.166;4.470;2023-02-15T05:49:55;0.30;;;0.30;;
28188;SDS011;15471;51.166;4.470;2023-02-15T05:52:20;0.30;;;0.30;;
28188;SDS011;15471;51.166;4.470;2023-02-15T05:54:46;0.30;;;0.30;;
28188;SDS011;15471;51.166;4.470;2023-02-15T05:57:12;0.30;;;0.30;;
28188;SDS011;15471;51.166;4.470;2023-02-15T05:59:38;0.30;;;0.30;;
28188;SDS011;15471;51.166;4.470;2023-02-15T06:02:04;0.30;;;0.30;;
28188;SDS011;15471;51.166;4.470;2023-02-15T06:04:31;0.30;;;0.30;;
28188;SDS011;15471;51.166;4.470;2023-02-15T06:06:57;0.30;;;0.30;;
28188;SDS011;15471;51.166;4.470;2023-02-15T06:09:23;0.30;;;0.30;;
28188;SDS011;15471;51.166;4.470;2023-02-15T06:11:48;0.30;;;0.30;;
28188;SDS011;15471;51.166;4.470;2023-02-15T06:14:14;0.30;;;0.30;;
28188;SDS011;15471;51.166;4.470;2023-02-15T06:16:40;0.40;;;0.40;;
28188;SDS011;15471;51.166;4.470;2023-02-15T06:19:06;0.40;;;0.40;;
28188;SDS011;15471;51.166;4.470;2023-02-15T06:21:32;0.40;;;0.40;;
28188;SDS011;15471;51.166;4.470;2023-02-15T06:23:58;0.30;;;0.30;;
28188;SDS011;15471;51.166;4.470;2023-02-15T06:26:24;0.40;;;0.40;;
28188;SDS011;15471;51.166;4.470;2023-02-15T06:28:49;0.30;;;0.30;;
28188;SDS011;15471;51.166;4.470;2023-02-15T06:31:15;0.30;;;0.30;;
28188;SDS011;15471;51.166;4.470;2023-02-15T06:33:41;0.30;;;0.30;;
28188;SDS011;15471;51.166;4.470;2023-02-15T06:36:07;0.30;;;0.30;;
28188;SDS011;15471;51.166;4.470;2023-02-15T06:38:33;0.30;;;0.30;;
28188;SDS011;15471;51.166;4.470;2023-02-15T06:40:59;0.30;;;0.30;;
28188;SDS011;15471;51.166;4.470;2023-02-15T06:43:25;0.30;;;0.30;;
28188;SDS011;15471;51.166;4.470;2023-02-15T06:45:51;0.30;;;0.30;;
28188;SDS011;15471;51.166;4.470;2023-02-15T06:48:19;0.30;;;0.30;;
28188;SDS011;15471;51.166;4.470;2023-02-15T06:50:45;0.30;;;0.30;;
28188;SDS011;15471;51.166;4.470;2023-02-15T06:53:11;0.30;;;0.30;;
28188;SDS011;15471;51.166;4.470;2023-02-15T06:55:37;0.30;;;0.30;;
28188;SDS011;15471;51.166;4.470;2023-02-15T06:58:03;0.30;;;0.30;;
28188;SDS011;15471;51.166;4.470;2023-02-15T07:00:29;0.30;;;0.30;;
28188;SDS011;15471;51.166;4.470;2023-02-15T07:02:55;0.30;;;0.30;;
28188;SDS011;15471;51.166;4.470;2023-02-15T07:05:23;0.30;;;0.30;;
28188;SDS011;15471;51.166;4.470;2023-02-15T07:07:49;0.30;;;0.30;;
28188;SDS011;15471;51.166;4.470;2023-02-15T07:10:15;0.30;;;0.30;;
28188;SDS011;15471;51.166;4.470;2023-02-15T07:12:41;0.30;;;0.30;;
28188;SDS011;15471;51.166;4.470;2023-02-15T07:15:12;0.30;;;0.30;;
28188;SDS011;15471;51.166;4.470;2023-02-15T07:17:39;0.30;;;0.30;;
28188;SDS011;15471;51.166;4.470;2023-02-15T07:20:06;0.30;;;0.30;;
28188;SDS011;15471;51.166;4.470;2023-02-15T07:22:38;0.30;;;0.30;;
28188;SDS011;15471;51.166;4.470;2023-02-15T07:25:05;0.30;;;0.30;;
28188;SDS011;15471;51.166;4.470;2023-02-15T07:27:32;0.30;;;0.30;;
28188;SDS011;15471;51.166;4.470;2023-02-15T07:29:58;0.30;;;0.30;;
28188;SDS011;15471;51.166;4.470;2023-02-15T07:32:27;0.30;;;0.30;;
28188;SDS011;15471;51.166;4.470;2023-02-15T07:35:00;0.30;;;0.30;;
28188;SDS011;15471;51.166;4.470;2023-02-15T07:37:27;0.30;;;0.30;;
28188;SDS011;15471;51.166;4.470;2023-02-15T07:39:53;0.30;;;0.30;;
28188;SDS011;15471;51.166;4.470;2023-02-15T07:42:20;0.30;;;0.30;;
28188;SDS011;15471;51.166;4.470;2023-02-15T07:44:47;0.30;;;0.30;;
28188;SDS011;15471;51.166;4.470;2023-02-15T07:47:12;0.30;;;0.30;;
28188;SDS011;15471;51.166;4.470;2023-02-15T07:49:41;0.30;;;0.30;;
28188;SDS011;15471;51.166;4.470;2023-02-15T07:52:07;0.20;;;0.20;;
28188;SDS011;15471;51.166;4.470;2023-02-15T07:54:33;0.30;;;0.30;;
28188;SDS011;15471;51.166;4.470;2023-02-15T07:57:00;0.30;;;0.30;;
28188;SDS011;15471;51.166;4.470;2023-02-15T07:59:26;0.20;;;0.20;;
28188;SDS011;15471;51.166;4.470;2023-02-15T08:01:52;0.20;;;0.20;;
28188;SDS011;15471;51.166;4.470;2023-02-15T08:04:19;0.20;;;0.20;;
28188;SDS011;15471;51.166;4.470;2023-02-15T08:06:44;0.20;;;0.20;;
28188;SDS011;15471;51.166;4.470;2023-02-15T08:09:11;0.20;;;0.20;;
28188;SDS011;15471;51.166;4.470;2023-02-15T08:11:37;0.20;;;0.20;;
28188;SDS011;15471;51.166;4.470;2023-02-15T08:14:08;0.20;;;0.20;;
28188;SDS011;15471;51.166;4.470;2023-02-15T08:19:14;0.20;;;0.20;;
28188;SDS011;15471;51.166;4.470;2023-02-15T08:21:45;0.20;;;0.20;;
28188;SDS011;15471;51.166;4.470;2023-02-15T08:24:13;0.20;;;0.20;;
28188;SDS011;15471;51.166;4.470;2023-02-15T08:26:40;0.20;;;0.20;;
28188;SDS011;15471;51.166;4.470;2023-02-15T08:29:07;0.20;;;0.20;;
28188;SDS011;15471;51.166;4.470;2023-02-15T08:31:35;0.20;;;0.20;;
28188;SDS011;15471;51.166;4.470;2023-02-15T08:34:02;0.20;;;0.20;;
28188;SDS011;15471;51.166;4.470;2023-02-15T08:36:29;0.20;;;0.20;;
28188;SDS011;15471;51.166;4.470;2023-02-15T08:39:00;0.20;;;0.20;;
28188;SDS011;15471;51.166;4.470;2023-02-15T08:41:31;0.20;;;0.20;;
28188;SDS011;15471;51.166;4.470;2023-02-15T08:44:00;0.20;;;0.20;;
28188;SDS011;15471;51.166;4.470;2023-02-15T08:46:28;0.20;;;0.20;;
28188;SDS011;15471;51.166;4.470;2023-02-15T08:48:55;0.20;;;0.20;;
28188;SDS011;15471;51.166;4.470;2023-02-15T08:51:23;0.10;;;0.10;;
28188;SDS011;15471;51.166;4.470;2023-02-15T08:53:51;0.10;;;0.10;;
28188;SDS011;15471;51.166;4.470;2023-02-15T08:56:19;0.10;;;0.10;;
28188;SDS011;15471;51.166;4.470;2023-02-15T08:58:47;0.10;;;0.10;;
28188;SDS011;15471;51.166;4.470;2023-02-15T09:01:13;0.10;;;0.10;;
28188;SDS011;15471;51.166;4.470;2023-02-15T09:03:52;0.10;;;0.10;;
28188;SDS011;15471;51.166;4.470;2023-02-15T09:06:21;0.10;;;0.10;;
28188;SDS011;15471;51.166;4.470;2023-02-15T09:08:48;0.10;;;0.10;;
28188;SDS011;15471;51.166;4.470;2023-02-15T09:11:21;0.10;;;0.10;;
28188;SDS011;15471;51.166;4.470;2023-02-15T09:14:02;0.10;;;0.10;;
28188;SDS011;15471;51.166;4.470;2023-02-15T09:16:32;0.10;;;0.10;;
28188;SDS011;15471;51.166;4.470;2023-02-15T09:18:59;0.10;;;0.10;;
28188;SDS011;15471;51.166;4.470;2023-02-15T09:21:30;0.10;;;0.10;;
28188;SDS011;15471;51.166;4.470;2023-02-15T09:23:58;0.00;;;0.00;;
28188;SDS011;15471;51.166;4.470;2023-02-15T09:26:27;0.00;;;0.00;;
28188;SDS011;15471;51.166;4.470;2023-02-15T09:28:55;0.10;;;0.10;;
28188;SDS011;15471;51.166;4.470;2023-02-15T09:31:25;0.00;;;0.00;;
28188;SDS011;15471;51.166;4.470;2023-02-15T09:33:53;0.00;;;0.00;;
28188;SDS011;15471;51.166;4.470;2023-02-15T09:36:20;0.00;;;0.00;;
28188;SDS011;15471;51.166;4.470;2023-02-15T09:52:25;0.00;;;0.00;;
28188;SDS011;15471;51.166;4.470;2023-02-15T10:00:24;0.00;;;0.00;;
28188;SDS011;15471;51.166;4.470;2023-02-15T10:11:39;0.00;;;0.00;;
28188;SDS011;15471;51.166;4.470;2023-02-15T10:22:48;0.00;;;0.00;;
28188;SDS011;15471;51.166;4.470;2023-02-15T10:25:50;0.00;;;0.00;;
28188;SDS011;15471;51.166;4.470;2023-02-15T10:28:30;0.00;;;0.00;;
28188;SDS011;15471;51.166;4.470;2023-02-15T10:34:20;0.10;;;0.10;;
28188;SDS011;15471;51.166;4.470;2023-02-15T10:50:49;0.00;;;0.00;;
28188;SDS011;15471;51.166;4.470;2023-02-15T10:53:34;0.00;;;0.00;;
28188;SDS011;15471;51.166;4.470;2023-02-15T10:56:28;0.00;;;0.00;;
28188;SDS011;15471;51.166;4.470;2023-02-15T11:02:53;0.00;;;0.00;;
28188;SDS011;15471;51.166;4.470;2023-02-15T11:07:49;0.00;;;0.00;;
28188;SDS011;15471;51.166;4.470;2023-02-15T11:13:02;0.00;;;0.00;;
28188;SDS011;15471;51.166;4.470;2023-02-15T11:16:05;0.00;;;0.00;;
28188;SDS011;15471;51.166;4.470;2023-02-15T11:21:45;0.00;;;0.00;;
28188;SDS011;15471;51.166;4.470;2023-02-15T11:24:16;0.10;;;0.10;;
28188;SDS011;15471;51.166;4.470;2023-02-15T11:29:23;0.05;;;0.05;;
28188;SDS011;15471;51.166;4.470;2023-02-15T11:32:19;0.00;;;0.00;;
28188;SDS011;15471;51.166;4.470;2023-02-15T11:42:48;0.00;;;0.00;;
28188;SDS011;15471;51.166;4.470;2023-02-15T11:47:42;0.00;;;0.00;;
28188;SDS011;15471;51.166;4.470;2023-02-15T11:50:13;0.00;;;0.00;;
28188;SDS011;15471;51.166;4.470;2023-02-15T11:52:41;0.00;;;0.00;;
28188;SDS011;15471;51.166;4.470;2023-02-15T11:55:11;0.08;;;0.08;;
28188;SDS011;15471;51.166;4.470;2023-02-15T11:57:41;0.00;;;0.00;;
28188;SDS011;15471;51.166;4.470;2023-02-15T12:00:42;0.00;;;0.00;;
28188;SDS011;15471;51.166;4.470;2023-02-15T12:03:21;0.00;;;0.00;;
28188;SDS011;15471;51.166;4.470;2023-02-15T12:05:56;0.00;;;0.00;;
28188;SDS011;15471;51.166;4.470;2023-02-15T12:11:03;0.00;;;0.00;;
28188;SDS011;15471;51.166;4.470;2023-02-15T12:13:53;0.00;;;0.00;;
28188;SDS011;15471;51.166;4.470;2023-02-15T12:16:19;0.00;;;0.00;;
28188;SDS011;15471;51.166;4.470;2023-02-15T12:18:45;0.00;;;0.00;;
28188;SDS011;15471;51.166;4.470;2023-02-15T12:21:23;0.00;;;0.00;;
28188;SDS011;15471;51.166;4.470;2023-02-15T12:24:18;0.00;;;0.00;;
28188;SDS011;15471;51.166;4.470;2023-02-15T12:26:58;0.00;;;0.00;;
28188;SDS011;15471;51.166;4.470;2023-02-15T12:29:26;0.00;;;0.00;;
28188;SDS011;15471;51.166;4.470;2023-02-15T12:31:56;0.00;;;0.00;;
28188;SDS011;15471;51.166;4.470;2023-02-15T12:34:25;0.00;;;0.00;;
28188;SDS011;15471;51.166;4.470;2023-02-15T12:37:19;0.00;;;0.00;;
28188;SDS011;15471;51.166;4.470;2023-02-15T12:39:56;0.00;;;0.00;;
28188;SDS011;15471;51.166;4.470;2023-02-15T12:42:27;0.00;;;0.00;;
28188;SDS011;15471;51.166;4.470;2023-02-15T12:45:27;0.00;;;0.00;;
28188;SDS011;15471;51.166;4.470;2023-02-15T12:50:47;0.00;;;0.00;;
28188;SDS011;15471;51.166;4.470;2023-02-15T12:53:15;0.00;;;0.00;;
28188;SDS011;15471;51.166;4.470;2023-02-15T12:55:55;0.00;;;0.00;;
28188;SDS011;15471;51.166;4.470;2023-02-15T12:58:23;0.00;;;0.00;;
28188;SDS011;15471;51.166;4.470;2023-02-15T13:01:02;0.00;;;0.00;;
28188;SDS011;15471;51.166;4.470;2023-02-15T13:03:56;0.00;;;0.00;;
28188;SDS011;15471;51.166;4.470;2023-02-15T13:06:34;0.00;;;0.00;;
28188;SDS011;15471;51.166;4.470;2023-02-15T13:09:21;0.00;;;0.00;;
28188;SDS011;15471;51.166;4.470;2023-02-15T13:14:51;0.00;;;0.00;;
28188;SDS011;15471;51.166;4.470;2023-02-15T13:17:27;0.00;;;0.00;;
28188;SDS011;15471;51.166;4.470;2023-02-15T13:20:03;0.00;;;0.00;;
28188;SDS011;15471;51.166;4.470;2023-02-15T13:22:41;0.00;;;0.00;;
28188;SDS011;15471;51.166;4.470;2023-02-15T13:27:43;0.00;;;0.00;;
28188;SDS011;15471;51.166;4.470;2023-02-15T13:33:24;0.00;;;0.00;;
28188;SDS011;15471;51.166;4.470;2023-02-15T13:36:09;0.00;;;0.00;;
28188;SDS011;15471;51.166;4.470;2023-02-15T13:38:58;0.00;;;0.00;;
28188;SDS011;15471;51.166;4.470;2023-02-15T13:47:21;0.00;;;0.00;;
28188;SDS011;15471;51.166;4.470;2023-02-15T14:11:37;0.00;;;0.00;;
28188;SDS011;15471;51.166;4.470;2023-02-15T14:17:04;0.00;;;0.00;;
28188;SDS011;15471;51.166;4.470;2023-02-15T14:19:45;0.00;;;0.00;;
28188;SDS011;15471;51.166;4.470;2023-02-15T14:22:38;0.00;;;0.00;;
28188;SDS011;15471;51.166;4.470;2023-02-15T14:25:41;0.00;;;0.00;;
28188;SDS011;15471;51.166;4.470;2023-02-15T14:28:16;0.00;;;0.00;;
28188;SDS011;15471;51.166;4.470;2023-02-15T14:30:55;0.00;;;0.00;;
28188;SDS011;15471;51.166;4.470;2023-02-15T14:33:34;0.00;;;0.00;;
28188;SDS011;15471;51.166;4.470;2023-02-15T14:36:05;0.00;;;0.00;;
28188;SDS011;15471;51.166;4.470;2023-02-15T14:41:53;0.00;;;0.00;;
28188;SDS011;15471;51.166;4.470;2023-02-15T14:47:08;0.00;;;0.00;;
28188;SDS011;15471;51.166;4.470;2023-02-15T14:49:40;0.00;;;0.00;;
28188;SDS011;15471;51.166;4.470;2023-02-15T14:52:06;0.00;;;0.00;;
28188;SDS011;15471;51.166;4.470;2023-02-15T14:59:36;0.00;;;0.00;;
28188;SDS011;15471;51.166;4.470;2023-02-15T15:02:21;0.00;;;0.00;;
28188;SDS011;15471;51.166;4.470;2023-02-15T15:04:55;0.00;;;0.00;;
28188;SDS011;15471;51.166;4.470;2023-02-15T15:07:22;0.00;;;0.00;;
28188;SDS011;15471;51.166;4.470;2023-02-15T15:10:03;0.00;;;0.00;;
28188;SDS011;15471;51.166;4.470;2023-02-15T15:12:46;0.00;;;0.00;;
28188;SDS011;15471;51.166;4.470;2023-02-15T15:17:54;0.00;;;0.00;;
28188;SDS011;15471;51.166;4.470;2023-02-15T15:20:39;0.00;;;0.00;;
28188;SDS011;15471;51.166;4.470;2023-02-15T15:25:42;0.00;;;0.00;;
28188;SDS011;15471;51.166;4.470;2023-02-15T15:45:39;0.00;;;0.00;;
28188;SDS011;15471;51.166;4.470;2023-02-15T15:50:50;0.00;;;0.00;;
28188;SDS011;15471;51.166;4.470;2023-02-15T15:53:23;0.00;;;0.00;;
28188;SDS011;15471;51.166;4.470;2023-02-15T15:56:02;0.00;;;0.00;;
28188;SDS011;15471;51.166;4.470;2023-02-15T15:58:31;0.00;;;0.00;;
28188;SDS011;15471;51.166;4.470;2023-02-15T16:01:09;0.00;;;0.00;;
28188;SDS011;15471;51.166;4.470;2023-02-15T16:03:38;0.00;;;0.00;;
28188;SDS011;15471;51.166;4.470;2023-02-15T16:06:26;0.00;;;0.00;;
28188;SDS011;15471;51.166;4.470;2023-02-15T16:12:01;0.00;;;0.00;;
28188;SDS011;15471;51.166;4.470;2023-02-15T16:14:32;0.00;;;0.00;;
28188;SDS011;15471;51.166;4.470;2023-02-15T16:17:03;0.00;;;0.00;;
28188;SDS011;15471;51.166;4.470;2023-02-15T16:19:40;0.00;;;0.00;;
28188;SDS011;15471;51.166;4.470;2023-02-15T16:22:12;0.00;;;0.00;;
28188;SDS011;15471;51.166;4.470;2023-02-15T16:33:04;0.00;;;0.00;;
28188;SDS011;15471;51.166;4.470;2023-02-15T16:35:32;0.00;;;0.00;;
28188;SDS011;15471;51.166;4.470;2023-02-15T16:37:59;0.00;;;0.00;;
28188;SDS011;15471;51.166;4.470;2023-02-15T16:40:37;0.00;;;0.00;;
28188;SDS011;15471;51.166;4.470;2023-02-15T16:43:20;0.10;;;0.10;;
28188;SDS011;15471;51.166;4.470;2023-02-15T16:45:51;0.05;;;0.05;;
28188;SDS011;15471;51.166;4.470;2023-02-15T16:48:28;0.00;;;0.00;;
28188;SDS011;15471;51.166;4.470;2023-02-15T16:50:54;0.10;;;0.10;;
28188;SDS011;15471;51.166;4.470;2023-02-15T16:53:31;0.00;;;0.00;;
28188;SDS011;15471;51.166;4.470;2023-02-15T16:55:58;0.10;;;0.10;;
28188;SDS011;15471;51.166;4.470;2023-02-15T17:01:07;0.10;;;0.10;;
28188;SDS011;15471;51.166;4.470;2023-02-15T17:03:35;0.10;;;0.10;;
28188;SDS011;15471;51.166;4.470;2023-02-15T17:06:02;0.10;;;0.10;;
28188;SDS011;15471;51.166;4.470;2023-02-15T17:08:36;0.00;;;0.00;;
28188;SDS011;15471;51.166;4.470;2023-02-15T17:13:40;0.00;;;0.00;;
28188;SDS011;15471;51.166;4.470;2023-02-15T17:16:41;0.10;;;0.10;;
28188;SDS011;15471;51.166;4.470;2023-02-15T17:19:18;0.10;;;0.10;;
28188;SDS011;15471;51.166;4.470;2023-02-15T17:21:48;0.10;;;0.10;;
28188;SDS011;15471;51.166;4.470;2023-02-15T17:24:44;0.10;;;0.10;;
28188;SDS011;15471;51.166;4.470;2023-02-15T17:27:20;0.00;;;0.00;;
28188;SDS011;15471;51.166;4.470;2023-02-15T17:29:55;0.10;;;0.10;;
28188;SDS011;15471;51.166;4.470;2023-02-15T17:32:27;0.10;;;0.10;;
28188;SDS011;15471;51.166;4.470;2023-02-15T17:37:42;0.10;;;0.10;;
28188;SDS011;15471;51.166;4.470;2023-02-15T17:42:47;0.10;;;0.10;;
28188;SDS011;15471;51.166;4.470;2023-02-15T17:45:14;0.10;;;0.10;;
28188;SDS011;15471;51.166;4.470;2023-02-15T17:47:41;0.10;;;0.10;;
28188;SDS011;15471;51.166;4.470;2023-02-15T17:50:08;0.10;;;0.10;;
28188;SDS011;15471;51.166;4.470;2023-02-15T17:52:50;0.10;;;0.10;;
28188;SDS011;15471;51.166;4.470;2023-02-15T17:55:18;0.10;;;0.10;;
28188;SDS011;15471;51.166;4.470;2023-02-15T17:58:13;0.10;;;0.10;;
28188;SDS011;15471;51.166;4.470;2023-02-15T18:00:50;0.10;;;0.10;;
28188;SDS011;15471;51.166;4.470;2023-02-15T18:06:33;0.10;;;0.10;;
28188;SDS011;15471;51.166;4.470;2023-02-15T18:09:20;0.10;;;0.10;;
28188;SDS011;15471;51.166;4.470;2023-02-15T18:12:14;0.10;;;0.10;;
28188;SDS011;15471;51.166;4.470;2023-02-15T18:14:42;0.10;;;0.10;;
28188;SDS011;15471;51.166;4.470;2023-02-15T18:17:10;0.10;;;0.10;;
28188;SDS011;15471;51.166;4.470;2023-02-15T18:19:38;0.10;;;0.10;;
28188;SDS011;15471;51.166;4.470;2023-02-15T18:22:12;0.10;;;0.10;;
28188;SDS011;15471;51.166;4.470;2023-02-15T18:24:39;0.10;;;0.10;;
28188;SDS011;15471;51.166;4.470;2023-02-15T18:27:05;0.10;;;0.10;;
28188;SDS011;15471;51.166;4.470;2023-02-15T18:29:31;0.10;;;0.10;;
28188;SDS011;15471;51.166;4.470;2023-02-15T18:31:57;0.10;;;0.10;;
28188;SDS011;15471;51.166;4.470;2023-02-15T18:34:29;0.10;;;0.10;;
28188;SDS011;15471;51.166;4.470;2023-02-15T18:36:58;0.10;;;0.10;;
28188;SDS011;15471;51.166;4.470;2023-02-15T18:42:04;0.10;;;0.10;;
28188;SDS011;15471;51.166;4.470;2023-02-15T18:44:31;0.10;;;0.10;;
28188;SDS011;15471;51.166;4.470;2023-02-15T18:47:00;0.10;;;0.10;;
28188;SDS011;15471;51.166;4.470;2023-02-15T18:49:26;0.10;;;0.10;;
28188;SDS011;15471;51.166;4.470;2023-02-15T18:51:51;0.10;;;0.10;;
28188;SDS011;15471;51.166;4.470;2023-02-15T18:54:19;0.10;;;0.10;;
28188;SDS011;15471;51.166;4.470;2023-02-15T18:56:50;0.10;;;0.10;;
28188;SDS011;15471;51.166;4.470;2023-02-15T18:59:21;0.10;;;0.10;;
28188;SDS011;15471;51.166;4.470;2023-02-15T19:01:49;0.10;;;0.10;;
28188;SDS011;15471;51.166;4.470;2023-02-15T19:04:15;0.10;;;0.10;;
28188;SDS011;15471;51.166;4.470;2023-02-15T19:06:47;0.10;;;0.10;;
28188;SDS011;15471;51.166;4.470;2023-02-15T19:09:18;0.10;;;0.10;;
28188;SDS011;15471;51.166;4.470;2023-02-15T19:11:50;0.10;;;0.10;;
28188;SDS011;15471;51.166;4.470;2023-02-15T19:14:22;0.10;;;0.10;;